createdAt,value
2018-06-09T00:02:39.187Z,57.90
2018-06-09T00:05:32.645Z,58.40
2018-06-09T00:08:07.515Z,58.20
2018-06-09T00:13:17.582Z,57.90
2018-06-09T00:15:52.476Z,58.00
2018-06-09T00:18:27.318Z,58.20
2018-06-09T00:21:01.607Z,58.70
2018-06-09T00:23:36.417Z,59.00
2018-06-09T00:26:11.212Z,59.60
2018-06-09T00:31:20.250Z,60.50
2018-06-09T00:36:29.316Z,61.30
2018-06-09T00:39:06.378Z,62.30
2018-06-09T00:41:41.176Z,62.50
2018-06-09T00:44:16.000Z,62.30
2018-06-09T00:46:51.237Z,62.20
2018-06-09T00:49:26.013Z,62.30
2018-06-09T00:52:00.883Z,62.50
2018-06-09T00:54:36.692Z,63.50
2018-06-09T00:57:10.925Z,64.10
2018-06-09T01:02:24.142Z,65.30
2018-06-09T01:04:58.360Z,65.80
2018-06-09T01:07:32.611Z,65.20
2018-06-09T01:10:06.982Z,65.00
2018-06-09T01:12:41.804Z,65.70
2018-06-09T01:15:16.024Z,65.70
2018-06-09T01:17:50.819Z,65.80
2018-06-09T01:20:25.158Z,66.40
2018-06-09T01:22:59.410Z,67.10
2018-06-09T01:28:08.384Z,68.00
2018-06-09T01:30:44.221Z,68.80
2018-06-09T01:33:18.491Z,69.70
2018-06-09T01:35:52.719Z,70.30
2018-06-09T01:38:27.979Z,71.00
2018-06-09T01:41:02.699Z,72.40
2018-06-09T01:46:12.235Z,75.00
2018-06-09T01:48:46.463Z,75.10
2018-06-09T01:51:20.836Z,75.80
2018-06-09T01:53:56.140Z,76.20
2018-06-09T01:56:31.400Z,75.90
2018-06-09T01:59:05.694Z,75.50
2018-06-09T02:01:39.950Z,75.10
2018-06-09T02:04:14.186Z,74.70
2018-06-09T02:06:48.402Z,75.00
2018-06-09T02:09:22.621Z,75.40
2018-06-09T02:11:56.855Z,75.90
2018-06-09T02:14:32.105Z,76.60
2018-06-09T02:17:06.345Z,77.70
2018-06-09T02:19:40.589Z,78.60
2018-06-09T02:22:15.887Z,79.30
2018-06-09T02:24:51.104Z,80.20
2018-06-09T02:27:25.308Z,81.00
2018-06-09T02:30:01.670Z,82.10
2018-06-09T02:35:24.258Z,82.60
2018-06-09T02:37:58.608Z,82.30
2018-06-09T02:40:34.070Z,82.40
2018-06-09T02:43:09.351Z,83.90
2018-06-09T02:45:45.608Z,84.60
2018-06-09T02:48:19.822Z,85.70
2018-06-09T02:50:54.055Z,86.70
2018-06-09T02:53:28.292Z,87.90
2018-06-09T02:56:02.536Z,89.90
2018-06-09T03:01:11.559Z,90.10
2018-06-09T03:03:46.837Z,90.40
2018-06-09T03:06:21.118Z,90.60
2018-06-09T03:08:55.396Z,91.10
2018-06-09T03:11:29.618Z,91.40
2018-06-09T03:14:03.929Z,91.40
2018-06-09T03:16:38.168Z,91.30
2018-06-09T03:19:12.456Z,91.40
2018-06-09T03:21:46.706Z,91.00
2018-06-09T03:24:20.960Z,85.60
2018-06-09T03:26:55.773Z,85.80
2018-06-09T03:32:03.783Z,83.30
2018-06-09T03:34:38.602Z,82.70
2018-06-09T03:37:13.575Z,80.20
2018-06-09T03:39:48.400Z,77.00
2018-06-09T03:42:24.217Z,74.50
2018-06-09T03:44:59.049Z,73.40
2018-06-09T03:47:34.849Z,71.10
2018-06-09T03:50:09.676Z,68.30
2018-06-09T03:52:45.553Z,66.80
2018-06-09T03:55:20.363Z,65.60
2018-06-09T03:57:55.351Z,63.70
2018-06-09T04:00:30.771Z,63.10
2018-06-09T04:03:23.450Z,61.90
2018-06-09T04:05:58.420Z,59.60
2018-06-09T04:08:33.196Z,57.30
2018-06-09T04:11:08.189Z,55.70
2018-06-09T04:13:42.971Z,53.70
2018-06-09T04:16:17.779Z,52.50
2018-06-09T04:18:52.562Z,51.10
2018-06-09T04:21:27.380Z,49.20
2018-06-09T04:24:02.190Z,47.70
2018-06-09T04:26:36.955Z,47.00
2018-06-09T04:29:11.756Z,46.90
2018-06-09T04:31:46.567Z,45.60
2018-06-09T04:34:22.372Z,45.90
2018-06-09T04:36:57.169Z,45.20
2018-06-09T04:39:31.963Z,44.80
2018-06-09T04:42:06.756Z,44.30
2018-06-09T04:44:41.542Z,43.60
2018-06-09T04:47:16.299Z,43.90
2018-06-09T04:49:53.124Z,43.70
2018-06-09T04:52:27.924Z,42.50
2018-06-09T04:55:03.744Z,41.90
2018-06-09T04:57:38.543Z,42.00
2018-06-09T05:00:14.344Z,41.40
2018-06-09T05:02:49.160Z,40.30
2018-06-09T05:05:26.641Z,39.10
2018-06-09T05:08:01.149Z,37.10
2018-06-09T05:13:10.574Z,37.00
2018-06-09T05:15:45.130Z,37.10
2018-06-09T05:18:19.803Z,37.50
2018-06-09T05:20:54.327Z,38.40
2018-06-09T05:23:29.101Z,39.40
2018-06-09T05:26:03.930Z,39.80
2018-06-09T05:31:14.027Z,42.60
2018-06-09T05:33:48.841Z,44.50
2018-06-09T05:36:23.661Z,46.80
2018-06-09T05:38:59.604Z,48.00
2018-06-09T05:41:34.480Z,48.10
2018-06-09T05:44:10.311Z,47.10
2018-06-09T05:46:45.157Z,46.50
2018-06-09T05:49:19.957Z,45.00
2018-06-09T05:51:54.750Z,43.80
2018-06-09T05:54:29.543Z,43.80
2018-06-09T05:57:04.352Z,44.20
2018-06-09T05:59:40.133Z,45.30
2018-06-09T06:02:14.956Z,45.60
2018-06-09T06:04:49.772Z,44.90
2018-06-09T06:07:28.488Z,42.90
2018-06-09T06:10:03.248Z,41.50
2018-06-09T06:12:38.054Z,39.10
2018-06-09T06:15:12.873Z,39.40
2018-06-09T06:17:47.396Z,40.30
2018-06-09T06:20:22.912Z,40.50
2018-06-09T06:22:57.401Z,39.30
2018-06-09T06:25:31.935Z,40.10
2018-06-09T06:30:40.452Z,38.90
2018-06-09T06:35:49.951Z,39.60
2018-06-09T06:38:24.540Z,37.30
2018-06-09T06:43:33.073Z,36.90
2018-06-09T06:46:07.587Z,37.40
2018-06-09T06:48:43.112Z,36.80
2018-06-09T06:51:17.604Z,38.30
2018-06-09T06:53:52.107Z,39.00
2018-06-09T06:56:26.670Z,39.80
2018-06-09T06:59:01.282Z,39.60
2018-06-09T07:01:35.764Z,40.00
2018-06-09T07:04:11.301Z,39.80
2018-06-09T07:06:46.796Z,39.20
2018-06-09T07:09:21.276Z,38.30
2018-06-09T07:11:55.835Z,37.20
2018-06-09T07:14:30.351Z,36.20
2018-06-09T07:17:04.884Z,34.80
2018-06-09T07:19:39.391Z,34.80
2018-06-09T07:22:13.978Z,33.70
2018-06-09T07:24:49.648Z,33.70
2018-06-09T07:27:24.141Z,33.40
2018-06-09T07:29:58.612Z,33.50
2018-06-09T07:32:33.123Z,33.40
2018-06-09T07:35:07.698Z,34.00
2018-06-09T07:37:42.355Z,33.50
2018-06-09T07:40:19.697Z,33.60
2018-06-09T07:45:28.167Z,32.60
2018-06-09T07:48:02.747Z,32.20
2018-06-09T07:53:12.326Z,32.20
2018-06-09T07:55:47.028Z,31.20
2018-06-09T08:00:55.544Z,31.50
2018-06-09T08:03:31.027Z,31.10
2018-06-09T08:09:42.342Z,30.70
2018-06-09T08:12:43.238Z,30.60
2018-06-09T08:15:33.332Z,30.70
2018-06-09T08:18:10.612Z,30.10
2018-06-09T08:23:19.182Z,28.90
2018-06-09T08:25:53.803Z,29.70
2018-06-09T08:28:28.342Z,29.70
2018-06-09T08:31:02.922Z,29.30
2018-06-09T08:33:37.507Z,31.40
2018-06-09T08:36:12.214Z,31.80
2018-06-09T08:38:46.906Z,31.70
2018-06-09T08:41:21.659Z,30.70
2018-06-09T08:43:56.200Z,31.40
2018-06-09T08:46:30.785Z,32.70
2018-06-09T08:49:05.299Z,31.40
2018-06-09T08:51:41.099Z,32.10
2018-06-09T08:54:15.618Z,30.70
2018-06-09T08:56:50.195Z,31.60
2018-06-09T08:59:25.775Z,31.20
2018-06-09T09:02:01.312Z,32.70
2018-06-09T09:04:35.734Z,29.90
2018-06-09T09:07:10.232Z,29.80
2018-06-09T09:09:44.666Z,29.40
2018-06-09T09:12:20.167Z,29.10
2018-06-09T09:17:28.691Z,33.10
2018-06-09T09:20:03.140Z,34.30
2018-06-09T09:22:38.610Z,34.30
2018-06-09T09:25:13.043Z,33.40
2018-06-09T09:27:48.503Z,33.80
2018-06-09T09:30:22.954Z,33.30
2018-06-09T09:32:58.474Z,33.70
2018-06-09T09:35:32.936Z,33.30
2018-06-09T09:38:08.454Z,33.40
2018-06-09T09:40:42.858Z,33.50
2018-06-09T09:45:51.301Z,33.70
2018-06-09T09:48:25.768Z,33.30
2018-06-09T09:51:00.284Z,33.30
2018-06-09T09:53:34.695Z,33.20
2018-06-09T09:56:09.168Z,33.80
2018-06-09T10:01:17.588Z,34.60
2018-06-09T10:03:53.107Z,34.90
2018-06-09T10:06:27.508Z,34.70
2018-06-09T10:09:01.962Z,35.40
2018-06-09T10:11:36.521Z,35.80
2018-06-09T10:17:25.570Z,36.00
2018-06-09T10:20:07.515Z,36.60
2018-06-09T10:25:16.021Z,37.70
2018-06-09T10:27:50.470Z,37.40
2018-06-09T10:30:24.915Z,38.00
2018-06-09T10:32:59.387Z,37.70
2018-06-09T10:35:33.852Z,37.40
2018-06-09T10:38:08.330Z,36.40
2018-06-09T10:40:42.781Z,37.40
2018-06-09T10:43:17.214Z,38.30
2018-06-09T10:45:51.711Z,38.80
2018-06-09T10:48:26.159Z,38.80
2018-06-09T10:51:00.584Z,38.10
2018-06-09T10:53:35.071Z,39.10
2018-06-09T10:56:09.543Z,39.80
2018-06-09T10:58:44.038Z,39.40
2018-06-09T11:01:18.461Z,38.70
2018-06-09T11:03:52.935Z,39.00
2018-06-09T11:06:28.439Z,38.40
2018-06-09T11:14:10.870Z,39.20
2018-06-09T11:16:45.288Z,40.00
2018-06-09T11:19:19.761Z,39.10
2018-06-09T11:21:54.256Z,39.90
2018-06-09T11:24:28.727Z,40.30
2018-06-09T11:27:03.399Z,41.30
2018-06-09T11:29:37.864Z,40.60
2018-06-09T11:32:12.291Z,40.70
2018-06-09T11:34:46.747Z,40.20
2018-06-09T11:37:21.196Z,39.00
2018-06-09T11:39:55.652Z,38.10
2018-06-09T11:42:30.112Z,37.90
2018-06-09T11:45:04.610Z,39.00
2018-06-09T11:50:12.996Z,38.90
2018-06-09T11:52:47.443Z,39.80
2018-06-09T11:55:21.947Z,40.80
2018-06-09T12:00:30.377Z,40.70
2018-06-09T12:03:04.744Z,41.80
2018-06-09T12:05:39.257Z,41.60
2018-06-09T12:08:13.809Z,41.60
2018-06-09T12:10:48.264Z,41.80
2018-06-09T12:13:22.722Z,41.80
2018-06-09T12:15:57.152Z,42.10
2018-06-09T12:18:31.592Z,43.30
2018-06-09T12:21:07.050Z,42.80
2018-06-09T12:23:42.473Z,44.10
2018-06-09T12:26:17.324Z,43.80
2018-06-09T12:28:52.066Z,44.20
2018-06-09T12:31:26.824Z,44.60
2018-06-09T12:34:01.519Z,45.20
2018-06-09T12:36:37.243Z,46.20
2018-06-09T12:39:11.976Z,46.80
2018-06-09T12:41:46.796Z,46.90
2018-06-09T12:44:21.487Z,44.80
2018-06-09T12:49:30.548Z,45.00
2018-06-09T12:52:06.318Z,45.40
2018-06-09T12:54:40.999Z,45.90
2018-06-09T12:57:15.799Z,45.80
2018-06-09T12:59:50.544Z,46.60
2018-06-09T13:02:25.301Z,47.20
2018-06-09T13:05:00.009Z,47.20
2018-06-09T13:10:09.012Z,47.10
2018-06-09T13:12:43.764Z,47.30
2018-06-09T13:15:18.456Z,47.70
2018-06-09T13:17:53.281Z,48.30
2018-06-09T13:20:29.112Z,48.50
2018-06-09T13:23:03.858Z,49.30
2018-06-09T13:25:38.591Z,48.40
2018-06-09T13:28:13.373Z,47.50
2018-06-09T13:35:56.640Z,49.00
2018-06-09T13:38:31.580Z,49.30
2018-06-09T13:41:06.347Z,48.60
2018-06-09T13:43:41.121Z,48.10
2018-06-09T13:46:15.887Z,48.10
2018-06-09T13:48:50.619Z,46.20
2018-06-09T13:51:25.381Z,46.40
2018-06-09T13:54:00.089Z,46.10
2018-06-09T13:56:34.859Z,45.90
2018-06-09T13:59:09.991Z,47.30
2018-06-09T14:01:45.818Z,46.40
2018-06-09T14:04:20.512Z,46.30
2018-06-09T14:06:55.319Z,46.60
2018-06-09T14:12:05.474Z,46.70
2018-06-09T14:14:41.182Z,46.00
2018-06-09T14:17:15.963Z,47.50
2018-06-09T14:19:50.704Z,48.10
2018-06-09T14:22:25.481Z,48.10
2018-06-09T14:27:35.531Z,48.70
2018-06-09T14:30:10.224Z,48.20
2018-06-09T14:32:45.044Z,48.20
2018-06-09T14:35:19.938Z,48.50
2018-06-09T14:37:55.711Z,46.20
2018-06-09T14:40:30.427Z,46.30
2018-06-09T14:43:05.210Z,46.30
2018-06-09T14:45:39.940Z,46.30
2018-06-09T14:48:15.763Z,44.90
2018-06-09T14:50:50.459Z,47.40
2018-06-09T14:53:25.283Z,47.60
2018-06-09T14:56:00.011Z,47.10
2018-06-09T14:58:34.820Z,47.50
2018-06-09T15:01:09.596Z,47.10
2018-06-09T15:03:45.348Z,45.90
2018-06-09T15:06:20.056Z,45.00
2018-06-09T15:08:54.807Z,46.40
2018-06-09T15:11:29.586Z,45.60
2018-06-09T15:14:04.569Z,44.70
2018-06-09T15:16:39.309Z,45.00
2018-06-09T15:19:14.049Z,43.60
2018-06-09T15:21:48.777Z,45.90
2018-06-09T15:24:24.586Z,46.50
2018-06-09T15:26:59.371Z,43.50
2018-06-09T15:29:34.123Z,46.70
2018-06-09T15:32:09.989Z,47.00
2018-06-09T15:34:44.696Z,47.40
2018-06-09T15:37:19.506Z,47.20
2018-06-09T15:39:54.247Z,47.50
2018-06-09T15:42:28.993Z,48.00
2018-06-09T15:45:03.773Z,47.90
2018-06-09T15:47:39.507Z,47.90
2018-06-09T15:50:15.274Z,48.40
2018-06-09T15:52:50.053Z,48.80
2018-06-09T15:55:24.752Z,49.30
2018-06-09T15:57:59.509Z,49.90
2018-06-09T16:00:34.263Z,50.10
2018-06-09T16:03:08.988Z,49.20
2018-06-09T16:05:44.688Z,49.10
2018-06-09T16:08:19.440Z,48.90
2018-06-09T16:10:55.224Z,48.10
2018-06-09T16:13:29.944Z,49.10
2018-06-09T16:21:14.204Z,50.20
2018-06-09T16:23:48.891Z,50.00
2018-06-09T16:26:24.670Z,49.80
2018-06-09T16:28:59.364Z,49.50
2018-06-09T16:31:34.102Z,48.70
2018-06-09T16:34:08.897Z,48.40
2018-06-09T16:36:43.643Z,47.00
2018-06-09T16:39:19.377Z,48.40
2018-06-09T16:41:54.141Z,48.60
2018-06-09T16:44:28.872Z,46.90
2018-06-09T16:47:04.610Z,47.30
2018-06-09T16:49:39.347Z,46.90
2018-06-09T16:52:14.075Z,46.70
2018-06-09T16:54:48.783Z,46.00
2018-06-09T16:57:23.530Z,45.40
2018-06-09T16:59:58.277Z,45.80
2018-06-09T17:02:33.055Z,45.90
2018-06-09T17:05:08.838Z,46.10
2018-06-09T17:07:43.566Z,46.10
2018-06-09T17:10:19.328Z,46.00
2018-06-09T17:12:54.083Z,46.30
2018-06-09T17:15:28.861Z,46.90
2018-06-09T17:18:03.596Z,47.60
2018-06-09T17:20:38.350Z,48.00
2018-06-09T17:23:13.051Z,48.60
2018-06-09T17:25:47.785Z,49.10
2018-06-09T17:28:23.555Z,49.40
2018-06-09T17:33:33.619Z,49.90
2018-06-09T17:36:08.368Z,50.40
2018-06-09T17:38:43.116Z,52.00
2018-06-09T17:41:18.026Z,55.10
2018-06-09T17:43:53.800Z,56.20
2018-06-09T17:46:28.536Z,57.60
2018-06-09T17:49:03.256Z,58.70
2018-06-09T17:51:37.984Z,59.20
2018-06-09T17:54:13.732Z,59.60
2018-06-09T17:56:48.769Z,59.80
2018-06-09T17:59:24.531Z,60.50
2018-06-09T18:01:59.228Z,61.30
2018-06-09T18:04:33.964Z,62.00
2018-06-09T18:07:08.661Z,62.60
2018-06-09T18:09:43.455Z,63.20
2018-06-09T18:12:19.220Z,63.60
2018-06-09T18:14:55.104Z,64.80
2018-06-09T18:17:29.795Z,64.90
2018-06-09T18:20:04.609Z,65.70
2018-06-09T18:22:39.339Z,66.00
2018-06-09T18:25:14.076Z,66.60
2018-06-09T18:30:24.041Z,68.00
2018-06-09T18:32:58.783Z,68.30
2018-06-09T18:35:33.578Z,68.40
2018-06-09T18:38:08.290Z,68.20
2018-06-09T18:40:43.096Z,68.70
2018-06-09T18:43:23.515Z,68.40
2018-06-09T18:48:45.155Z,68.50
2018-06-09T18:51:19.875Z,68.90
2018-06-09T18:56:28.843Z,69.80
2018-06-09T18:59:04.017Z,69.80
2018-06-09T19:01:39.425Z,70.20
2018-06-09T19:04:14.211Z,70.60
2018-06-09T19:06:48.913Z,71.00
2018-06-09T19:09:23.683Z,72.10
2018-06-09T19:11:58.427Z,72.30
2018-06-09T19:14:34.199Z,73.40
2018-06-09T19:17:08.910Z,73.30
2018-06-09T19:19:43.676Z,73.50
2018-06-09T19:22:18.413Z,74.40
2018-06-09T19:27:27.468Z,77.60
2018-06-09T19:30:03.242Z,77.80
2018-06-09T19:32:38.026Z,79.00
2018-06-09T19:35:12.795Z,79.50
2018-06-09T19:37:48.623Z,80.30
2018-06-09T19:40:23.397Z,82.10
2018-06-09T19:42:58.149Z,82.70
2018-06-09T19:45:33.595Z,84.50
2018-06-09T19:48:14.432Z,86.20
2018-06-09T19:50:50.886Z,85.50
2018-06-09T19:53:25.889Z,84.50
2018-06-09T19:56:08.989Z,83.10
2018-06-09T20:01:18.118Z,78.80
2018-06-09T20:03:53.839Z,78.10
2018-06-09T20:06:28.605Z,78.30
2018-06-09T20:09:04.617Z,77.70
2018-06-09T20:11:39.391Z,77.70
2018-06-09T20:14:14.116Z,78.10
2018-06-09T20:16:48.918Z,78.20
2018-06-09T20:19:23.651Z,81.40
2018-06-09T20:21:58.414Z,84.90
2018-06-09T20:24:33.111Z,87.30
2018-06-09T20:27:07.879Z,88.60
2018-06-09T20:29:42.598Z,88.40
2018-06-09T20:32:17.432Z,87.30
2018-06-09T20:34:53.852Z,85.90
2018-06-09T20:37:28.751Z,85.70
2018-06-09T20:40:05.456Z,81.90
2018-06-09T20:42:40.969Z,78.40
2018-06-09T20:45:15.712Z,79.70
2018-06-09T20:47:50.467Z,75.50
2018-06-09T20:50:25.211Z,77.50
2018-06-09T20:53:00.035Z,78.50
2018-06-09T20:58:09.064Z,78.80
2018-06-09T21:00:43.759Z,75.00
2018-06-09T21:03:18.514Z,74.10
2018-06-09T21:05:53.234Z,72.10
2018-06-09T21:08:28.165Z,72.60
2018-06-09T21:11:02.871Z,72.80
2018-06-09T21:13:37.627Z,73.70
2018-06-09T21:16:12.327Z,73.80
2018-06-09T21:18:47.120Z,75.00
2018-06-09T21:21:22.840Z,79.30
2018-06-09T21:23:58.592Z,82.70
2018-06-09T21:26:39.529Z,85.50
2018-06-09T21:29:19.652Z,89.00
2018-06-09T21:31:54.375Z,90.40
2018-06-09T21:34:44.269Z,91.40
2018-06-09T21:40:22.568Z,94.00
2018-06-09T21:43:06.600Z,95.00
2018-06-09T21:45:47.686Z,95.80
2018-06-09T21:51:07.144Z,96.80
2018-06-09T21:54:04.668Z,96.90
2018-06-09T21:56:47.464Z,96.70
2018-06-09T21:59:35.884Z,97.00
2018-06-09T22:02:10.910Z,97.50
2018-06-09T22:07:20.773Z,97.70
2018-06-09T22:09:55.600Z,97.50
2018-06-09T22:15:05.876Z,97.90
2018-06-09T22:20:16.105Z,98.10
2018-06-09T22:22:50.919Z,98.20
2018-06-09T22:25:30.841Z,98.10
2018-06-09T22:28:05.640Z,97.90
2018-06-09T22:30:40.351Z,97.50
2018-06-09T22:33:15.078Z,97.40
2018-06-09T22:35:49.811Z,97.40
2018-06-09T22:38:25.556Z,97.60
2018-06-09T22:41:00.301Z,97.80
2018-06-09T22:46:09.272Z,98.40
2018-06-09T22:48:43.995Z,98.50
2018-06-09T22:51:18.725Z,99.00
2018-06-09T22:53:53.516Z,99.40
2018-06-09T22:56:28.228Z,99.70
2018-06-09T22:59:02.985Z,99.90
2018-06-09T23:01:37.718Z,99.90
2018-06-09T23:04:12.541Z,99.90
2018-06-09T23:09:22.502Z,99.90
2018-06-09T23:11:57.205Z,99.90
2018-06-09T23:17:07.134Z,99.90
2018-06-09T23:19:41.959Z,99.90
2018-06-09T23:22:16.685Z,99.90
2018-06-09T23:24:51.474Z,99.90
2018-06-09T23:27:26.126Z,99.90
2018-06-09T23:30:00.899Z,99.90
2018-06-09T23:32:35.660Z,99.90
2018-06-09T23:35:10.399Z,99.90
2018-06-09T23:37:45.065Z,99.90
2018-06-09T23:40:19.911Z,99.90
2018-06-09T23:42:54.612Z,99.90
2018-06-09T23:45:29.381Z,99.90
2018-06-09T23:48:04.138Z,99.90
2018-06-09T23:50:38.904Z,99.90
2018-06-09T23:53:13.644Z,99.90
2018-06-09T23:55:49.433Z,99.90
2018-06-09T23:58:24.170Z,99.90
